Time;durP1;ratioP1;P1;durP2;ratioP2;P2;SDS_P1;SDS_P2;PMS_P1;PMS_P2;Temp;Humidity;BMP_temperature;BMP_pressure;BME280_temperature;BME280_humidity;BME280_pressure;Samples;Min_cycle;Max_cycle;Signal;HPM_P1;HPM_P2
2020/12/21 00:01:27;;;;;;;27.17;14.97;;;;;;;3.28;100.00;97025.78;5006898;28;20261;-70
2020/12/21 00:03:53;;;;;;;26.93;15.37;;;;;;;3.31;100.00;97029.00;5007667;28;20210;-70
2020/12/21 00:06:19;;;;;;;25.50;15.40;;;;;;;3.34;100.00;97025.31;5007213;28;21030;-70
2020/12/21 00:08:45;;;;;;;27.20;14.63;;;;;;;3.37;100.00;97022.47;5008941;28;20749;-70
2020/12/21 00:11:11;;;;;;;26.73;15.37;;;;;;;3.45;100.00;97028.78;5008265;28;20222;-70
2020/12/21 00:13:42;;;;;;;24.70;14.80;;;;;;;3.28;100.00;97021.38;5007760;28;20210;-70
2020/12/21 00:16:08;;;;;;;31.83;15.90;;;;;;;3.50;100.00;97029.28;5006206;28;20199;-70
2020/12/21 00:18:34;;;;;;;27.77;16.17;;;;;;;3.41;100.00;97037.78;5007601;28;20217;-70
2020/12/21 00:21:00;;;;;;;28.20;15.50;;;;;;;3.44;100.00;97039.34;5007542;28;20226;-70
2020/12/21 00:23:26;;;;;;;26.17;15.10;;;;;;;3.44;100.00;97034.94;5007709;28;20223;-70
2020/12/21 00:25:52;;;;;;;25.93;15.40;;;;;;;3.40;100.00;97040.47;5007538;28;20262;-70
2020/12/21 00:28:18;;;;;;;25.63;15.47;;;;;;;3.41;100.00;97039.53;5007266;28;20211;-70
2020/12/21 00:30:45;;;;;;;24.80;15.23;;;;;;;3.43;100.00;97038.47;5007126;28;20238;-70
2020/12/21 00:33:11;;;;;;;24.60;14.47;;;;;;;3.50;100.00;97046.66;5007715;28;20210;-70
2020/12/21 00:35:37;;;;;;;21.80;13.17;;;;;;;3.54;100.00;97045.50;5007059;28;20272;-70
2020/12/21 00:38:03;;;;;;;25.10;14.93;;;;;;;3.55;100.00;97044.56;5007224;28;20233;-70
2020/12/21 00:40:29;;;;;;;26.03;14.63;;;;;;;3.55;100.00;97044.56;5006800;28;20261;-69
2020/12/21 00:42:55;;;;;;;23.53;13.93;;;;;;;3.45;100.00;97038.38;5005472;28;20240;-70
2020/12/21 00:45:21;;;;;;;28.93;15.87;;;;;;;3.54;100.00;97035.06;5004924;28;20273;-70
2020/12/21 00:47:48;;;;;;;23.40;13.87;;;;;;;3.58;100.00;97044.31;5006512;28;20678;-70
2020/12/21 00:50:13;;;;;;;26.53;14.70;;;;;;;3.61;100.00;97038.88;5006617;28;20207;-70
2020/12/21 00:52:39;;;;;;;26.70;15.17;;;;;;;3.61;100.00;97041.50;5007049;28;20289;-70
2020/12/21 00:55:05;;;;;;;24.30;14.23;;;;;;;3.59;100.00;97040.75;5006187;28;20202;-70
2020/12/21 00:57:33;;;;;;;23.37;14.77;;;;;;;3.65;100.00;97046.34;5005775;28;20210;-70
2020/12/21 00:59:59;;;;;;;23.63;13.80;;;;;;;3.58;100.00;97042.56;5006545;28;20869;-70
2020/12/21 01:02:25;;;;;;;22.40;14.00;;;;;;;3.58;100.00;97050.38;5006897;28;20234;-70
2020/12/21 01:04:51;;;;;;;23.73;14.37;;;;;;;3.54;100.00;97048.94;5006919;28;20210;-70
2020/12/21 01:07:17;;;;;;;26.27;15.10;;;;;;;3.61;100.00;97050.13;5005906;28;20288;-70
2020/12/21 01:09:46;;;;;;;23.33;14.00;;;;;;;3.42;100.00;97043.81;5006261;28;20248;-70
2020/12/21 01:12:12;;;;;;;27.23;14.83;;;;;;;3.49;100.00;97045.00;5005849;28;20273;-70
2020/12/21 01:14:38;;;;;;;24.03;14.00;;;;;;;3.61;100.00;97049.31;5005890;28;20596;-69
2020/12/21 01:17:04;;;;;;;24.37;14.20;;;;;;;3.58;100.00;97059.94;5005907;28;20210;-70
2020/12/21 01:19:30;;;;;;;24.70;14.33;;;;;;;3.64;100.00;97061.16;5006240;28;20321;-70
2020/12/21 01:21:58;;;;;;;26.80;14.43;;;;;;;3.64;100.00;97055.94;5006297;28;20226;-70
2020/12/21 01:24:24;;;;;;;23.23;13.27;;;;;;;3.66;100.00;97059.25;5005771;28;20257;-70
2020/12/21 01:26:50;;;;;;;24.40;13.57;;;;;;;3.63;100.00;97051.69;5005640;28;20282;-70
2020/12/21 01:29:16;;;;;;;22.00;13.83;;;;;;;3.67;100.00;97055.72;5006020;28;20242;-70
2020/12/21 01:31:41;;;;;;;22.23;13.23;;;;;;;3.74;100.00;97056.91;5005016;28;21196;-70
2020/12/21 01:34:07;;;;;;;21.63;12.77;;;;;;;3.80;100.00;97056.44;5007514;28;20321;-70
2020/12/21 01:36:33;;;;;;;22.33;13.70;;;;;;;3.71;100.00;97059.75;5005084;28;20203;-70
2020/12/21 01:39:00;;;;;;;23.27;13.43;;;;;;;3.79;100.00;97060.00;5005824;28;20240;-70
2020/12/21 01:41:26;;;;;;;20.17;12.83;;;;;;;3.82;100.00;97058.94;5006335;28;20229;-70
2020/12/21 01:43:55;;;;;;;21.03;13.23;;;;;;;3.74;100.00;97061.28;5005121;28;20210;-70
2020/12/21 01:46:22;;;;;;;22.60;13.50;;;;;;;3.62;100.00;97064.00;5004332;28;20215;-70
2020/12/21 01:48:48;;;;;;;22.27;13.87;;;;;;;3.67;100.00;97065.31;5005396;28;20217;-69
2020/12/21 01:51:22;;;;;;;20.93;13.37;;;;;;;3.72;100.00;97071.84;5005189;28;20229;-70
2020/12/21 01:53:49;;;;;;;20.67;13.07;;;;;;;3.76;100.00;97078.47;5005128;28;20213;-70
2020/12/21 01:56:17;;;;;;;22.10;13.83;;;;;;;3.75;100.00;97073.38;5004611;28;20207;-70
2020/12/21 01:58:43;;;;;;;24.43;14.60;;;;;;;3.62;100.00;97077.03;5005013;28;20206;-70
2020/12/21 02:01:12;;;;;;;23.03;14.10;;;;;;;3.60;100.00;97081.53;5004710;28;20237;-70
2020/12/21 02:03:38;;;;;;;24.83;14.83;;;;;;;3.53;100.00;97082.94;5004962;28;20213;-70
2020/12/21 02:06:04;;;;;;;28.30;16.27;;;;;;;3.51;100.00;97080.41;5004546;28;20226;-70
2020/12/21 02:08:30;;;;;;;22.53;13.57;;;;;;;3.63;100.00;97069.91;5004696;28;20242;-70
2020/12/21 02:10:56;;;;;;;23.43;14.43;;;;;;;3.63;100.00;97072.53;5003787;28;20734;-70
2020/12/21 02:13:23;;;;;;;28.37;15.23;;;;;;;3.61;100.00;97068.38;5005058;28;20217;-71
2020/12/21 02:15:49;;;;;;;29.60;15.03;;;;;;;3.58;100.00;97067.75;5004483;28;20229;-70
2020/12/21 02:18:15;;;;;;;24.07;13.80;;;;;;;3.51;100.00;97063.97;5004667;28;20214;-70
2020/12/21 02:20:42;;;;;;;29.17;15.13;;;;;;;3.62;100.00;97057.00;5004939;28;20226;-70
2020/12/21 02:23:08;;;;;;;24.40;14.20;;;;;;;3.67;100.00;97060.91;5005636;28;20206;-70
2020/12/21 02:25:34;;;;;;;25.67;14.70;;;;;;;3.71;100.00;97057.13;5004004;28;20708;-70
2020/12/21 02:28:00;;;;;;;25.47;14.70;;;;;;;3.68;100.00;97054.78;5005371;28;20218;-70
2020/12/21 02:30:26;;;;;;;27.03;14.70;;;;;;;3.72;100.00;97048.38;5005493;28;20249;-70
2020/12/21 02:32:52;;;;;;;25.50;13.30;;;;;;;3.71;100.00;97048.50;5005363;28;20225;-70
2020/12/21 02:35:18;;;;;;;25.60;14.00;;;;;;;3.74;100.00;97050.88;5004288;28;20210;-70
2020/12/21 02:37:45;;;;;;;24.23;13.80;;;;;;;3.72;100.00;97047.56;5005049;28;20213;-70
2020/12/21 02:40:11;;;;;;;25.63;13.87;;;;;;;3.74;100.00;97056.06;5005034;28;20265;-70
2020/12/21 02:42:37;;;;;;;24.73;14.00;;;;;;;3.76;100.00;97052.41;5004362;28;20229;-70
2020/12/21 02:45:04;;;;;;;22.87;13.50;;;;;;;3.83;100.00;97050.16;5004330;28;20210;-69
2020/12/21 02:47:30;;;;;;;22.80;13.90;;;;;;;3.81;100.00;97047.69;5003895;28;20227;-70
2020/12/21 02:49:56;;;;;;;26.07;14.27;;;;;;;3.82;100.00;97045.91;5004467;28;20265;-70
2020/12/21 02:52:22;;;;;;;24.57;13.83;;;;;;;3.82;100.00;97059.78;5004459;28;20323;-70
2020/12/21 02:54:50;;;;;;;24.40;13.83;;;;;;;3.87;100.00;97047.22;5004690;28;20207;-70
2020/12/21 02:57:16;;;;;;;21.50;12.57;;;;;;;3.89;100.00;97040.09;5003906;28;20210;-70
2020/12/21 02:59:42;;;;;;;25.10;12.23;;;;;;;3.92;100.00;97052.06;5005431;28;20221;-70
2020/12/21 03:02:08;;;;;;;27.03;12.63;;;;;;;3.90;100.00;97056.59;5005184;28;20338;-70
2020/12/21 03:04:34;;;;;;;21.40;12.57;;;;;;;3.82;100.00;97051.94;5004400;28;20237;-71
2020/12/21 03:07:00;;;;;;;24.20;12.83;;;;;;;3.71;100.00;97049.31;5004372;28;20695;-70
2020/12/21 03:09:26;;;;;;;25.13;13.10;;;;;;;3.73;100.00;97044.84;5004963;28;20238;-70
2020/12/21 03:11:53;;;;;;;23.50;12.33;;;;;;;3.76;100.00;97044.59;5005072;28;20222;-70
2020/12/21 03:14:19;;;;;;;24.13;12.53;;;;;;;3.83;100.00;97045.78;5005037;28;20210;-70
2020/12/21 03:16:45;;;;;;;26.27;13.23;;;;;;;3.88;100.00;97037.59;5004481;28;20708;-70
2020/12/21 03:19:11;;;;;;;23.67;12.67;;;;;;;3.94;100.00;97043.19;5004482;28;20673;-71
2020/12/21 03:21:37;;;;;;;24.83;12.47;;;;;;;3.99;100.00;97041.06;5004154;28;20238;-69
2020/12/21 03:24:03;;;;;;;25.43;12.63;;;;;;;3.96;100.00;97030.03;5004486;28;20210;-70
2020/12/21 03:26:29;;;;;;;26.13;13.70;;;;;;;4.05;100.00;97035.38;5004589;28;20345;-70
2020/12/21 03:28:56;;;;;;;23.93;12.90;;;;;;;4.07;100.00;97025.63;5004283;28;20245;-70
2020/12/21 03:31:22;;;;;;;28.63;12.90;;;;;;;4.08;100.00;97019.47;5004101;28;20642;-70
2020/12/21 03:33:48;;;;;;;27.07;13.83;;;;;;;4.01;100.00;97018.31;5003589;28;20210;-70
2020/12/21 03:36:14;;;;;;;26.50;12.87;;;;;;;3.98;100.00;97020.31;5004393;28;20293;-70
2020/12/21 03:38:40;;;;;;;26.87;13.23;;;;;;;4.00;100.00;97014.03;5004295;28;20585;-70
2020/12/21 03:41:06;;;;;;;25.03;11.73;;;;;;;4.02;100.00;97022.59;5004845;28;20249;-71
2020/12/21 03:43:32;;;;;;;27.03;12.60;;;;;;;4.19;100.00;97014.28;5004443;28;20682;-70
2020/12/21 03:45:58;;;;;;;22.13;11.90;;;;;;;4.14;100.00;97008.59;5004347;28;20230;-70
2020/12/21 03:48:24;;;;;;;21.47;12.17;;;;;;;4.22;100.00;97007.03;5004902;28;20712;-70
2020/12/21 03:50:50;;;;;;;23.87;12.27;;;;;;;4.18;100.00;97010.00;5005057;28;20222;-70
2020/12/21 03:53:16;;;;;;;25.27;12.87;;;;;;;4.12;100.00;96997.44;5005846;28;20234;-71
2020/12/21 03:55:42;;;;;;;34.83;13.97;;;;;;;4.03;100.00;96999.94;5005239;28;20290;-70
2020/12/21 03:58:08;;;;;;;25.57;13.13;;;;;;;4.02;100.00;96998.28;5005653;28;20670;-70
2020/12/21 04:00:34;;;;;;;34.90;14.70;;;;;;;3.99;100.00;97001.94;5005376;28;20226;-70
2020/12/21 04:03:01;;;;;;;28.33;12.97;;;;;;;4.00;100.00;97005.41;5004769;28;20293;-70
2020/12/21 04:05:27;;;;;;;33.37;13.40;;;;;;;4.03;100.00;97003.38;5004614;28;20575;-70
2020/12/21 04:07:53;;;;;;;26.93;13.20;;;;;;;4.08;100.00;96998.63;5005075;28;20218;-70
2020/12/21 04:10:19;;;;;;;20.60;12.30;;;;;;;4.09;100.00;97005.50;5004919;28;20321;-70
2020/12/21 04:12:46;;;;;;;23.17;12.63;;;;;;;4.09;100.00;97008.09;5004944;28;20338;-70
2020/12/21 04:15:12;;;;;;;25.23;12.50;;;;;;;4.20;100.00;97002.91;5004389;28;20211;-70
2020/12/21 04:17:39;;;;;;;24.27;13.03;;;;;;;4.17;100.00;97008.34;5005185;28;20217;-71
2020/12/21 04:20:06;;;;;;;25.40;12.63;;;;;;;4.10;100.00;97012.38;5007761;28;20218;-70
2020/12/21 04:22:31;;;;;;;23.20;12.30;;;;;;;4.20;100.00;97013.34;5008385;28;20210;-70
2020/12/21 04:24:59;;;;;;;23.07;13.10;;;;;;;4.25;100.00;97014.63;5008045;28;20313;-70
2020/12/21 04:27:25;;;;;;;22.53;13.70;;;;;;;4.15;100.00;97028.50;5007847;28;20348;-70
2020/12/21 04:29:51;;;;;;;22.47;13.20;;;;;;;4.24;100.00;97033.00;5007233;28;20225;-70
2020/12/21 04:32:17;;;;;;;24.30;12.40;;;;;;;4.17;100.00;97033.59;5008046;28;20709;-70
2020/12/21 04:34:43;;;;;;;23.77;12.73;;;;;;;4.22;100.00;97039.28;5008299;28;20207;-70
2020/12/21 04:37:10;;;;;;;25.67;14.47;;;;;;;4.13;100.00;97037.41;5008075;28;20294;-70
2020/12/21 04:39:36;;;;;;;26.57;14.73;;;;;;;4.22;100.00;97027.88;5008229;28;20210;-70
2020/12/21 04:42:02;;;;;;;26.33;14.47;;;;;;;4.17;100.00;97018.78;5007656;28;20776;-70
2020/12/21 04:44:28;;;;;;;24.50;13.93;;;;;;;4.14;100.00;97023.38;5007424;28;20210;-71
2020/12/21 04:46:55;;;;;;;23.83;13.67;;;;;;;4.07;100.00;97017.81;5007483;28;20226;-70
2020/12/21 04:49:21;;;;;;;23.03;13.20;;;;;;;4.02;100.00;97013.91;5006872;28;20901;-70
2020/12/21 04:51:49;;;;;;;23.63;13.80;;;;;;;3.98;100.00;97020.31;5007254;28;20320;-71
2020/12/21 04:54:17;;;;;;;24.70;14.43;;;;;;;4.11;100.00;97013.19;5007402;28;20206;-70
2020/12/21 04:56:44;;;;;;;22.27;13.63;;;;;;;4.10;100.00;97016.75;5007052;28;20199;-70
2020/12/21 04:59:11;;;;;;;25.50;14.20;;;;;;;3.98;100.00;97002.88;5006821;28;20218;-70
2020/12/21 05:01:37;;;;;;;24.53;14.37;;;;;;;3.87;100.00;97000.28;5007375;28;20227;-70
2020/12/21 05:04:03;;;;;;;24.13;13.63;;;;;;;3.84;100.00;96999.69;5007682;28;20211;-70
2020/12/21 05:06:29;;;;;;;26.10;15.03;;;;;;;3.73;100.00;97003.13;5005983;28;20234;-70
2020/12/21 05:09:04;;;;;;;25.67;14.00;;;;;;;3.69;100.00;97001.72;5007049;28;21189;-70
2020/12/21 05:11:31;;;;;;;28.23;14.50;;;;;;;3.76;100.00;96996.84;5006915;28;20218;-70
2020/12/21 05:14:07;;;;;;;22.13;12.97;;;;;;;3.69;100.00;96996.50;5007227;28;20206;-70
2020/12/21 05:16:34;;;;;;;23.93;12.60;;;;;;;3.82;100.00;96992.00;5006103;28;20210;-71
2020/12/21 05:19:00;;;;;;;23.10;12.83;;;;;;;3.85;100.00;96983.94;5006756;28;20210;-70
2020/12/21 05:21:27;;;;;;;22.93;12.43;;;;;;;3.83;100.00;96979.78;5006334;28;20231;-70
2020/12/21 05:23:56;;;;;;;26.40;13.33;;;;;;;3.75;100.00;96984.75;5006593;28;20210;-70
2020/12/21 05:26:27;;;;;;;23.17;13.23;;;;;;;3.77;100.00;96983.69;5005607;28;20307;-70
2020/12/21 05:28:54;;;;;;;24.90;12.50;;;;;;;3.73;100.00;96982.28;5005858;28;20673;-70
2020/12/21 05:31:20;;;;;;;25.70;12.80;;;;;;;3.94;100.00;96975.41;5006366;28;20258;-70
2020/12/21 05:33:48;;;;;;;27.97;13.10;;;;;;;3.95;100.00;96973.63;5006363;28;20206;-70
2020/12/21 05:36:15;;;;;;;23.20;13.47;;;;;;;3.90;100.00;96968.75;5005814;28;20294;-70
2020/12/21 05:38:43;;;;;;;27.07;13.30;;;;;;;3.99;100.00;96959.41;5006537;28;20654;-70
2020/12/21 05:41:11;;;;;;;21.97;12.37;;;;;;;3.92;100.00;96966.88;5006398;28;20296;-70
2020/12/21 05:43:38;;;;;;;24.27;12.97;;;;;;;3.91;100.00;96965.22;5006320;28;20214;-70
2020/12/21 05:46:07;;;;;;;27.57;12.80;;;;;;;3.94;100.00;96959.75;5005323;28;20237;-70
2020/12/21 05:48:35;;;;;;;29.57;13.07;;;;;;;3.88;100.00;96965.47;5005862;28;20682;-70
2020/12/21 05:51:03;;;;;;;21.93;12.90;;;;;;;3.82;100.00;96978.97;5006358;28;20242;-70
2020/12/21 05:53:34;;;;;;;22.93;13.17;;;;;;;3.77;100.00;96988.09;5004623;28;20211;-70
2020/12/21 05:56:01;;;;;;;22.30;12.77;;;;;;;3.87;100.00;96984.66;5004883;28;20289;-70
2020/12/21 05:58:31;;;;;;;24.83;13.53;;;;;;;3.92;100.00;96987.75;5006215;28;20207;-70
2020/12/21 06:00:59;;;;;;;28.47;14.90;;;;;;;3.93;100.00;96997.19;5005147;28;20324;-70
2020/12/21 06:03:36;;;;;;;36.50;17.87;;;;;;;3.89;100.00;96989.75;5005408;28;20218;-70
2020/12/21 06:06:08;;;;;;;47.77;17.93;;;;;;;3.88;100.00;96988.94;5005895;28;20582;-70
2020/12/21 06:08:35;;;;;;;38.50;17.03;;;;;;;4.00;100.00;96982.75;5006082;28;20832;-70
2020/12/21 06:11:14;;;;;;;28.17;13.37;;;;;;;3.96;100.00;96988.31;5005885;28;20241;-70
2020/12/21 06:13:43;;;;;;;34.50;15.13;;;;;;;4.00;100.00;96989.75;5005990;28;20205;-70
2020/12/21 06:16:12;;;;;;;31.87;17.17;;;;;;;4.00;100.00;96982.75;5005882;28;20211;-70
2020/12/21 06:18:38;;;;;;;28.50;14.93;;;;;;;3.91;100.00;96986.06;5005606;28;20203;-70
2020/12/21 06:21:04;;;;;;;49.67;17.27;;;;;;;3.97;100.00;96985.59;5006060;28;20241;-70
2020/12/21 06:23:32;;;;;;;48.13;16.13;;;;;;;3.93;100.00;96989.38;5006619;28;20210;-70
2020/12/21 06:26:08;;;;;;;37.20;16.20;;;;;;;4.04;100.00;96989.38;5004810;28;20226;-70
2020/12/21 06:28:34;;;;;;;30.77;15.10;;;;;;;4.11;100.00;96977.53;5005228;28;20213;-70
2020/12/21 06:31:14;;;;;;;42.03;16.90;;;;;;;4.03;100.00;96977.28;5002286;28;20590;-71
2020/12/21 06:33:41;;;;;;;40.17;17.73;;;;;;;3.96;100.00;96985.69;5001804;28;20887;-71
2020/12/21 06:36:07;;;;;;;40.80;18.83;;;;;;;3.92;100.00;96987.75;5000976;28;20195;-71
2020/12/21 06:38:45;;;;;;;68.17;21.27;;;;;;;3.94;100.00;96985.00;5001478;28;21101;-71
2020/12/21 06:41:15;;;;;;;49.23;20.80;;;;;;;3.94;100.00;96992.81;5000772;28;20244;-71
2020/12/21 06:43:52;;;;;;;67.27;22.60;;;;;;;3.98;100.00;96992.47;5001696;28;20273;-71
2020/12/21 06:46:19;;;;;;;79.23;21.37;;;;;;;3.95;100.00;97002.31;5001083;28;20700;-71
2020/12/21 06:48:59;;;;;;;92.57;22.50;;;;;;;3.87;100.00;97005.50;5001477;28;20215;-71
2020/12/21 06:51:25;;;;;;;58.53;22.33;;;;;;;3.88;100.00;97012.38;5002447;28;20222;-71
2020/12/21 06:53:58;;;;;;;65.80;23.53;;;;;;;3.89;100.00;97024.44;5001820;28;20289;-71
2020/12/21 06:56:26;;;;;;;79.93;24.93;;;;;;;3.93;100.00;97010.22;5001574;28;20308;-70
2020/12/21 06:58:56;;;;;;;105.07;25.87;;;;;;;3.91;100.00;97016.53;5001258;28;20678;-71
2020/12/21 07:01:24;;;;;;;83.67;26.83;;;;;;;3.94;100.00;97026.72;5001153;28;20230;-71
2020/12/21 07:03:51;;;;;;;71.37;25.70;;;;;;;3.95;100.00;97024.00;5000448;28;20209;-71
2020/12/21 07:06:17;;;;;;;90.30;27.07;;;;;;;3.99;100.00;97032.41;5000427;28;20230;-71
2020/12/21 07:08:44;;;;;;;70.73;26.80;;;;;;;4.01;100.00;97030.50;5000436;28;20217;-71
2020/12/21 07:11:16;;;;;;;67.60;26.13;;;;;;;4.03;100.00;97026.81;5000714;28;20218;-71
2020/12/21 07:13:42;;;;;;;68.63;27.53;;;;;;;4.00;100.00;97024.47;4999830;28;20284;-71
2020/12/21 07:16:08;;;;;;;63.00;27.67;;;;;;;3.98;100.00;97018.53;5000680;28;20225;-71
2020/12/21 07:18:34;;;;;;;70.47;27.43;;;;;;;3.97;100.00;97010.84;5000062;28;20984;-71
2020/12/21 07:21:05;;;;;;;66.27;28.97;;;;;;;4.00;100.00;97005.41;5000915;28;20321;-70
2020/12/21 07:23:31;;;;;;;68.27;28.03;;;;;;;4.01;100.00;96996.59;5000803;28;20210;-71
2020/12/21 07:25:57;;;;;;;71.30;27.20;;;;;;;4.07;100.00;96998.75;5000446;28;20238;-71
2020/12/21 07:28:23;;;;;;;59.30;25.17;;;;;;;4.12;100.00;97005.25;5000278;28;20209;-71
2020/12/21 07:30:50;;;;;;;65.77;26.07;;;;;;;4.10;100.00;97004.56;5001135;28;20635;-71
2020/12/21 07:33:16;;;;;;;67.07;26.93;;;;;;;4.07;100.00;96996.13;5000646;28;20207;-71
2020/12/21 07:35:42;;;;;;;64.33;26.60;;;;;;;4.11;100.00;96990.59;5000490;28;20268;-71
2020/12/21 07:38:10;;;;;;;68.00;25.97;;;;;;;4.16;100.00;96995.41;5001661;28;20629;-71
2020/12/21 07:40:37;;;;;;;64.83;27.87;;;;;;;4.21;100.00;96998.50;5000972;28;20253;-71
2020/12/21 07:43:05;;;;;;;68.20;26.43;;;;;;;4.25;100.00;97000.72;5001206;28;20206;-71
2020/12/21 07:45:35;;;;;;;72.77;27.77;;;;;;;4.19;100.00;96996.03;5000661;28;20210;-71
2020/12/21 07:48:01;;;;;;;76.33;26.73;;;;;;;4.14;100.00;97012.94;5000547;28;20245;-71
2020/12/21 07:50:27;;;;;;;68.63;28.23;;;;;;;4.14;100.00;97007.72;5001109;28;20320;-71
2020/12/21 07:52:56;;;;;;;81.27;28.13;;;;;;;4.09;100.00;97009.91;5002218;28;20214;-71
2020/12/21 07:55:22;;;;;;;78.10;27.30;;;;;;;4.09;100.00;97005.50;5004651;28;20233;-71
2020/12/21 07:57:48;;;;;;;72.87;27.07;;;;;;;4.09;100.00;96997.69;5005042;28;20203;-71
2020/12/21 08:00:14;;;;;;;84.63;30.30;;;;;;;4.14;100.00;96992.94;5004584;28;20315;-71
2020/12/21 08:02:44;;;;;;;111.93;32.77;;;;;;;4.22;100.00;96980.94;5003369;28;20289;-71
2020/12/21 08:05:17;;;;;;;123.97;32.80;;;;;;;4.29;100.00;96963.06;5003313;28;20214;-71
2020/12/21 08:07:43;;;;;;;126.93;30.63;;;;;;;4.36;100.00;96966.81;5003493;28;20226;-71
2020/12/21 08:10:12;;;;;;;143.37;38.10;;;;;;;4.38;100.00;96964.94;5003831;28;20317;-71
2020/12/21 08:12:39;;;;;;;140.10;40.00;;;;;;;4.38;100.00;96962.31;5004629;28;20217;-71
2020/12/21 08:15:07;;;;;;;93.23;31.03;;;;;;;4.39;100.00;96977.00;5003800;28;20264;-71
2020/12/21 08:17:33;;;;;;;75.20;27.50;;;;;;;4.89;100.00;96975.41;5005332;28;20202;-71
2020/12/21 08:20:04;;;;;;;73.70;27.67;;;;;;;5.51;100.00;96976.28;5004553;28;20210;-71
2020/12/21 08:22:30;;;;;;;86.43;26.57;;;;;;;5.24;100.00;96982.97;5003539;28;20227;-71
2020/12/21 08:25:00;;;;;;;69.13;24.87;;;;;;;4.80;100.00;96982.34;5003774;28;20272;-71
2020/12/21 08:27:26;;;;;;;79.90;26.70;;;;;;;4.58;100.00;96983.25;5003397;28;20230;-71
2020/12/21 08:30:08;;;;;;;88.67;26.43;;;;;;;4.54;100.00;96981.00;5004122;28;20206;-71
2020/12/21 08:32:33;;;;;;;76.00;29.57;;;;;;;4.50;100.00;96971.75;5003056;28;20210;-71
2020/12/21 08:34:59;;;;;;;96.57;30.83;;;;;;;4.54;100.00;96981.00;5004172;28;20260;-71
2020/12/21 08:37:26;;;;;;;102.50;28.77;;;;;;;4.50;100.00;96974.38;5004242;28;20680;-72
2020/12/21 08:39:52;;;;;;;98.30;27.77;;;;;;;4.58;100.00;96972.81;5004637;28;20206;-71
2020/12/21 08:42:18;;;;;;;81.60;29.93;;;;;;;4.54;100.00;96970.56;5003407;28;20729;-71
2020/12/21 08:44:44;;;;;;;82.00;27.90;;;;;;;4.58;100.00;96972.81;5004205;28;20344;-71
2020/12/21 08:47:11;;;;;;;77.57;27.30;;;;;;;4.58;100.00;96987.63;5004050;28;20230;-71
2020/12/21 08:49:37;;;;;;;87.40;27.43;;;;;;;4.50;100.00;96984.81;5004754;28;20207;-71
2020/12/21 08:52:03;;;;;;;78.60;29.13;;;;;;;4.46;100.00;96983.41;5004106;28;20258;-71
2020/12/21 08:54:29;;;;;;;118.80;26.20;;;;;;;4.34;100.00;96986.97;5004335;28;20344;-71
2020/12/21 08:56:57;;;;;;;151.37;28.67;;;;;;;4.35;100.00;96980.81;5003691;28;20210;-71
2020/12/21 08:59:23;;;;;;;96.40;28.40;;;;;;;4.38;100.00;96980.59;5003702;28;20213;-71
2020/12/21 09:01:49;;;;;;;91.60;28.23;;;;;;;4.43;100.00;96983.63;5003751;28;20222;-71
2020/12/21 09:04:16;;;;;;;87.20;26.63;;;;;;;4.44;100.00;96980.06;5003419;28;20202;-71
2020/12/21 09:06:42;;;;;;;115.60;28.17;;;;;;;4.49;100.00;96973.56;5002404;28;20241;-71
2020/12/21 09:09:10;;;;;;;78.80;26.60;;;;;;;4.44;100.00;96974.84;5004371;28;20959;-71
2020/12/21 09:11:36;;;;;;;78.97;26.23;;;;;;;4.49;100.00;96983.16;5004219;28;20237;-71
2020/12/21 09:14:03;;;;;;;72.43;26.00;;;;;;;4.56;100.00;96981.72;5003281;28;20256;-71
2020/12/21 09:16:30;;;;;;;79.47;25.23;;;;;;;4.51;100.00;96992.50;5003616;28;20202;-71
2020/12/21 09:18:57;;;;;;;78.20;27.33;;;;;;;4.53;100.00;97000.22;5004090;28;20202;-71
2020/12/21 09:21:25;;;;;;;81.47;24.33;;;;;;;4.47;100.00;97000.72;5003095;28;20780;-71
2020/12/21 09:23:53;;;;;;;83.30;27.53;;;;;;;4.46;100.00;96999.88;5002806;28;20214;-70
2020/12/21 09:26:19;;;;;;;97.87;27.07;;;;;;;4.47;100.00;97000.72;5001645;28;20238;-71
2020/12/21 09:28:46;;;;;;;82.93;24.90;;;;;;;4.42;100.00;96993.25;5002271;28;20299;-71
2020/12/21 09:31:13;;;;;;;66.17;24.53;;;;;;;4.49;100.00;96993.59;5002859;28;20249;-70
2020/12/21 09:33:39;;;;;;;85.13;25.97;;;;;;;4.46;100.00;96988.63;5002525;28;20226;-71
2020/12/21 09:36:05;;;;;;;63.27;22.40;;;;;;;4.44;100.00;96991.34;5002438;28;20211;-71
2020/12/21 09:38:32;;;;;;;69.57;24.87;;;;;;;4.44;100.00;96985.28;5002458;28;20210;-71
2020/12/21 09:40:58;;;;;;;76.17;23.53;;;;;;;4.50;100.00;96988.25;5002747;28;20300;-71
2020/12/21 09:43:24;;;;;;;55.23;23.60;;;;;;;4.48;100.00;96987.56;5003119;28;20724;-71
2020/12/21 09:45:50;;;;;;;61.13;22.93;;;;;;;4.51;100.00;96989.09;5001964;28;20217;-71
2020/12/21 09:48:16;;;;;;;68.30;24.53;;;;;;;4.48;100.00;96986.69;5003215;28;20378;-71
2020/12/21 09:50:42;;;;;;;55.03;23.50;;;;;;;4.57;100.00;96981.59;5002996;28;20230;-71
2020/12/21 09:53:08;;;;;;;50.93;21.87;;;;;;;4.58;100.00;96983.25;5002792;28;20217;-71
2020/12/21 09:55:36;;;;;;;52.40;21.80;;;;;;;4.58;100.00;96983.25;5002293;28;20677;-72
2020/12/21 09:58:02;;;;;;;63.90;24.33;;;;;;;4.72;100.00;96977.72;5002036;28;20646;-72
2020/12/21 10:00:28;;;;;;;50.37;23.20;;;;;;;4.68;100.00;96978.13;5002418;28;20225;-71
2020/12/21 10:02:54;;;;;;;55.57;24.50;;;;;;;4.76;100.00;96975.72;5002934;28;20230;-71
2020/12/21 10:05:20;;;;;;;56.07;23.70;;;;;;;4.81;100.00;96984.00;5001846;28;20575;-71
2020/12/21 10:07:46;;;;;;;51.70;22.40;;;;;;;4.83;100.00;96985.53;5002204;28;20230;-72
2020/12/21 10:10:12;;;;;;;51.00;23.00;;;;;;;4.90;100.00;96984.91;5002549;28;20318;-71
2020/12/21 10:12:39;;;;;;;53.70;23.50;;;;;;;4.94;100.00;96980.28;5002607;28;20309;-71
2020/12/21 10:15:06;;;;;;;64.03;24.60;;;;;;;4.91;100.00;96977.91;5000394;28;20218;-72
2020/12/21 10:17:32;;;;;;;56.60;23.50;;;;;;;4.89;100.00;96980.66;5000056;28;20218;-72
2020/12/21 10:19:57;;;;;;;68.07;24.63;;;;;;;4.82;100.00;96982.09;5000502;28;20210;-72
2020/12/21 10:22:24;;;;;;;68.03;24.67;;;;;;;4.77;100.00;96964.31;5001736;28;20227;-72
2020/12/21 10:24:50;;;;;;;56.47;24.00;;;;;;;4.81;100.00;96963.94;5001987;28;20582;-72
2020/12/21 10:27:15;;;;;;;56.90;23.67;;;;;;;4.82;100.00;96967.38;5001510;28;20329;-71
2020/12/21 10:29:42;;;;;;;70.43;25.00;;;;;;;4.77;100.00;96969.53;5001538;28;20687;-72
2020/12/21 10:32:08;;;;;;;64.60;24.10;;;;;;;4.82;100.00;96964.78;5000690;28;20230;-72
2020/12/21 10:34:34;;;;;;;68.77;26.30;;;;;;;4.88;100.00;96962.50;5000851;28;20214;-71
2020/12/21 10:37:01;;;;;;;69.07;26.17;;;;;;;4.89;100.00;96972.81;5000319;28;20887;-72
2020/12/21 10:39:27;;;;;;;71.80;28.00;;;;;;;4.94;100.00;96970.66;5001331;28;20202;-72
2020/12/21 10:41:53;;;;;;;61.37;24.53;;;;;;;4.93;100.00;96963.78;5001630;28;20249;-72
2020/12/21 10:44:19;;;;;;;59.20;24.03;;;;;;;5.00;100.00;96964.94;5000279;28;20198;-72
2020/12/21 10:46:46;;;;;;;68.47;25.73;;;;;;;5.06;100.00;96964.41;5000226;28;20238;-72
2020/12/21 10:49:12;;;;;;;62.03;24.03;;;;;;;5.00;100.00;96964.94;5000387;28;20209;-72
2020/12/21 10:51:38;;;;;;;64.60;25.10;;;;;;;5.00;100.00;96962.34;5000666;28;20784;-72
2020/12/21 10:54:04;;;;;;;64.47;25.40;;;;;;;5.05;100.00;96946.25;5001550;28;20297;-72
2020/12/21 10:56:30;;;;;;;62.87;25.23;;;;;;;5.08;100.00;96949.47;4999774;28;20682;-72
2020/12/21 10:58:56;;;;;;;64.70;24.83;;;;;;;5.11;100.00;96943.97;5000135;28;20217;-72
2020/12/21 11:01:23;;;;;;;53.30;22.77;;;;;;;5.20;100.00;96939.78;5000962;28;20237;-72
2020/12/21 11:03:50;;;;;;;66.57;24.57;;;;;;;5.17;100.00;96940.88;5000180;28;20211;-72
2020/12/21 11:06:23;;;;;;;49.73;20.07;;;;;;;5.13;100.00;96942.06;4999642;28;20214;-72
2020/12/21 11:08:50;;;;;;;47.17;19.87;;;;;;;5.06;100.00;96943.53;5000189;28;20214;-72
2020/12/21 11:11:24;;;;;;;47.00;19.83;;;;;;;5.02;100.00;96936.91;5000133;28;20238;-72
2020/12/21 11:13:50;;;;;;;45.53;18.50;;;;;;;5.02;100.00;96926.44;4999398;28;20247;-72
2020/12/21 11:16:16;;;;;;;50.17;20.37;;;;;;;5.03;100.00;96922.06;4999352;28;20207;-71